sim
Sign-in with your pilot id or email,
or register
Callsign
Passwort

Schedule Details

Flight Number: RYR7068 (2)
Departure: Rome Ciampino Airport (LIRA) at 05:40
Arrival: Thessaloniki International Airport (LGTS) at 07:25
Route: Ryanair Passenger Schedule. Enter filed route here before submitting Pirep.

Weather Information
Getting current METAR information for LIRA 211550Z 27007KT 240V300 CAVOK 13/06 Q1026
Getting current METAR information for LGTS 211550Z 35005KT CAVOK 14/00 Q1021 NOSIG

Schedule Frequency

Route Map